sensor_id;sensor_type;location;lat;lon;timestamp;temperature;humidity
14908;DHT22;7545;52.092;7.006;2023-05-15T00:01:42;16.50;99.90
14908;DHT22;7545;52.092;7.006;2023-05-15T00:04:08;16.50;99.90
14908;DHT22;7545;52.092;7.006;2023-05-15T00:06:34;16.50;99.90
14908;DHT22;7545;52.092;7.006;2023-05-15T00:09:00;16.40;99.90
14908;DHT22;7545;52.092;7.006;2023-05-15T00:11:26;16.40;99.90
14908;DHT22;7545;52.092;7.006;2023-05-15T00:13:52;16.40;99.90
14908;DHT22;7545;52.092;7.006;2023-05-15T00:16:18;16.40;99.90
14908;DHT22;7545;52.092;7.006;2023-05-15T00:18:44;16.40;99.90
14908;DHT22;7545;52.092;7.006;2023-05-15T00:21:10;16.40;99.90
14908;DHT22;7545;52.092;7.006;2023-05-15T00:23:35;16.30;99.90
14908;DHT22;7545;52.092;7.006;2023-05-15T00:26:01;16.30;99.90
14908;DHT22;7545;52.092;7.006;2023-05-15T00:28:26;16.20;99.90
14908;DHT22;7545;52.092;7.006;2023-05-15T00:30:52;16.20;99.90
14908;DHT22;7545;52.092;7.006;2023-05-15T00:33:18;16.30;99.90
14908;DHT22;7545;52.092;7.006;2023-05-15T00:35:44;16.20;99.90
14908;DHT22;7545;52.092;7.006;2023-05-15T00:38:10;16.20;99.90
14908;DHT22;7545;52.092;7.006;2023-05-15T00:40:36;16.20;99.90
14908;DHT22;7545;52.092;7.006;2023-05-15T00:43:03;16.20;99.90
14908;DHT22;7545;52.092;7.006;2023-05-15T00:45:29;16.10;99.90
14908;DHT22;7545;52.092;7.006;2023-05-15T00:47:57;16.10;99.90
14908;DHT22;7545;52.092;7.006;2023-05-15T00:50:23;16.10;99.90
14908;DHT22;7545;52.092;7.006;2023-05-15T00:52:49;16.00;99.90
14908;DHT22;7545;52.092;7.006;2023-05-15T00:55:15;16.00;99.90
14908;DHT22;7545;52.092;7.006;2023-05-15T00:57:42;16.00;99.90
14908;DHT22;7545;52.092;7.006;2023-05-15T01:00:08;15.90;99.90
14908;DHT22;7545;52.092;7.006;2023-05-15T01:02:35;15.90;99.90
14908;DHT22;7545;52.092;7.006;2023-05-15T01:05:02;15.90;99.90
14908;DHT22;7545;52.092;7.006;2023-05-15T01:07:33;15.80;99.90
14908;DHT22;7545;52.092;7.006;2023-05-15T01:10:02;15.80;99.90
14908;DHT22;7545;52.092;7.006;2023-05-15T01:12:29;15.80;99.90
14908;DHT22;7545;52.092;7.006;2023-05-15T01:14:56;15.80;99.90
14908;DHT22;7545;52.092;7.006;2023-05-15T01:17:22;15.70;99.90
14908;DHT22;7545;52.092;7.006;2023-05-15T01:19:49;15.70;99.90
14908;DHT22;7545;52.092;7.006;2023-05-15T01:27:57;15.70;99.90
14908;DHT22;7545;52.092;7.006;2023-05-15T01:30:35;15.60;99.90
14908;DHT22;7545;52.092;7.006;2023-05-15T01:33:07;15.60;99.90
14908;DHT22;7545;52.092;7.006;2023-05-15T01:35:44;15.50;99.90
14908;DHT22;7545;52.092;7.006;2023-05-15T01:38:32;15.50;99.90
14908;DHT22;7545;52.092;7.006;2023-05-15T01:41:04;15.50;99.90
14908;DHT22;7545;52.092;7.006;2023-05-15T01:43:32;15.50;99.90
14908;DHT22;7545;52.092;7.006;2023-05-15T01:46:02;15.50;99.90
14908;DHT22;7545;52.092;7.006;2023-05-15T01:48:32;15.50;99.90
14908;DHT22;7545;52.092;7.006;2023-05-15T01:51:02;15.40;99.90
14908;DHT22;7545;52.092;7.006;2023-05-15T01:53:33;15.40;99.90
14908;DHT22;7545;52.092;7.006;2023-05-15T01:56:00;15.40;99.90
14908;DHT22;7545;52.092;7.006;2023-05-15T01:58:27;15.40;99.90
14908;DHT22;7545;52.092;7.006;2023-05-15T02:00:53;15.30;99.90
14908;DHT22;7545;52.092;7.006;2023-05-15T02:03:19;15.30;99.90
14908;DHT22;7545;52.092;7.006;2023-05-15T02:05:46;15.30;99.90
14908;DHT22;7545;52.092;7.006;2023-05-15T02:08:12;15.30;99.90
14908;DHT22;7545;52.092;7.006;2023-05-15T02:10:40;15.30;99.90
14908;DHT22;7545;52.092;7.006;2023-05-15T02:13:09;15.20;99.90
14908;DHT22;7545;52.092;7.006;2023-05-15T02:15:36;15.30;99.90
14908;DHT22;7545;52.092;7.006;2023-05-15T02:18:01;15.30;99.90
14908;DHT22;7545;52.092;7.006;2023-05-15T02:20:27;15.30;99.90
14908;DHT22;7545;52.092;7.006;2023-05-15T02:22:53;15.20;99.90
14908;DHT22;7545;52.092;7.006;2023-05-15T02:25:28;15.20;99.90
14908;DHT22;7545;52.092;7.006;2023-05-15T02:27:59;15.10;99.90
14908;DHT22;7545;52.092;7.006;2023-05-15T02:30:37;15.10;99.90
14908;DHT22;7545;52.092;7.006;2023-05-15T02:35:47;15.10;99.90
14908;DHT22;7545;52.092;7.006;2023-05-15T02:38:19;15.10;99.90
14908;DHT22;7545;52.092;7.006;2023-05-15T02:40:47;15.00;99.90
14908;DHT22;7545;52.092;7.006;2023-05-15T02:43:14;15.00;99.90
14908;DHT22;7545;52.092;7.006;2023-05-15T02:45:44;15.00;99.90
14908;DHT22;7545;52.092;7.006;2023-05-15T02:48:10;15.00;99.90
14908;DHT22;7545;52.092;7.006;2023-05-15T02:50:36;14.90;99.90
14908;DHT22;7545;52.092;7.006;2023-05-15T02:53:06;14.90;99.90
14908;DHT22;7545;52.092;7.006;2023-05-15T02:55:33;14.90;99.90
14908;DHT22;7545;52.092;7.006;2023-05-15T02:57:58;14.80;99.90
14908;DHT22;7545;52.092;7.006;2023-05-15T03:00:24;14.80;99.90
14908;DHT22;7545;52.092;7.006;2023-05-15T03:02:50;14.80;99.90
14908;DHT22;7545;52.092;7.006;2023-05-15T03:05:16;14.80;99.90
14908;DHT22;7545;52.092;7.006;2023-05-15T03:07:41;14.70;99.90
14908;DHT22;7545;52.092;7.006;2023-05-15T03:10:07;14.70;99.90
14908;DHT22;7545;52.092;7.006;2023-05-15T03:12:33;14.70;99.90
14908;DHT22;7545;52.092;7.006;2023-05-15T03:14:58;14.70;99.90
14908;DHT22;7545;52.092;7.006;2023-05-15T03:17:24;14.60;99.90
14908;DHT22;7545;52.092;7.006;2023-05-15T03:19:50;14.60;99.90
14908;DHT22;7545;52.092;7.006;2023-05-15T03:22:15;14.60;99.90
14908;DHT22;7545;52.092;7.006;2023-05-15T03:24:41;14.50;99.90
14908;DHT22;7545;52.092;7.006;2023-05-15T03:27:06;14.40;99.90
14908;DHT22;7545;52.092;7.006;2023-05-15T03:29:32;14.30;99.90
14908;DHT22;7545;52.092;7.006;2023-05-15T03:31:58;14.30;99.90
14908;DHT22;7545;52.092;7.006;2023-05-15T03:34:23;14.30;99.90
14908;DHT22;7545;52.092;7.006;2023-05-15T03:36:49;14.40;99.90
14908;DHT22;7545;52.092;7.006;2023-05-15T03:39:14;14.40;99.90
14908;DHT22;7545;52.092;7.006;2023-05-15T03:41:40;14.40;99.90
14908;DHT22;7545;52.092;7.006;2023-05-15T03:44:05;14.40;99.90
14908;DHT22;7545;52.092;7.006;2023-05-15T03:46:31;14.40;99.90
14908;DHT22;7545;52.092;7.006;2023-05-15T03:48:57;14.40;99.90
14908;DHT22;7545;52.092;7.006;2023-05-15T03:51:22;14.50;99.90
14908;DHT22;7545;52.092;7.006;2023-05-15T03:53:48;14.40;99.90
14908;DHT22;7545;52.092;7.006;2023-05-15T03:56:15;14.40;99.90
14908;DHT22;7545;52.092;7.006;2023-05-15T03:58:40;14.40;99.90
14908;DHT22;7545;52.092;7.006;2023-05-15T04:01:06;14.50;99.90
14908;DHT22;7545;52.092;7.006;2023-05-15T04:03:32;14.40;99.90
14908;DHT22;7545;52.092;7.006;2023-05-15T04:05:57;14.40;99.90
14908;DHT22;7545;52.092;7.006;2023-05-15T04:08:23;14.40;99.90
14908;DHT22;7545;52.092;7.006;2023-05-15T04:10:48;14.30;99.90
14908;DHT22;7545;52.092;7.006;2023-05-15T04:13:14;14.30;99.90
14908;DHT22;7545;52.092;7.006;2023-05-15T04:15:40;14.30;99.90
14908;DHT22;7545;52.092;7.006;2023-05-15T04:18:05;14.30;99.90
14908;DHT22;7545;52.092;7.006;2023-05-15T04:20:31;14.10;99.90
14908;DHT22;7545;52.092;7.006;2023-05-15T04:22:58;14.10;99.90
14908;DHT22;7545;52.092;7.006;2023-05-15T04:25:24;14.10;99.90
14908;DHT22;7545;52.092;7.006;2023-05-15T04:27:50;14.10;99.90
14908;DHT22;7545;52.092;7.006;2023-05-15T04:30:16;14.20;99.90
14908;DHT22;7545;52.092;7.006;2023-05-15T04:32:42;14.10;99.90
14908;DHT22;7545;52.092;7.006;2023-05-15T04:35:09;14.10;99.90
14908;DHT22;7545;52.092;7.006;2023-05-15T04:37:39;14.10;99.90
14908;DHT22;7545;52.092;7.006;2023-05-15T04:40:05;14.10;99.90
14908;DHT22;7545;52.092;7.006;2023-05-15T04:42:32;14.10;99.90
14908;DHT22;7545;52.092;7.006;2023-05-15T04:44:58;14.00;99.90
14908;DHT22;7545;52.092;7.006;2023-05-15T04:47:24;14.00;99.90
14908;DHT22;7545;52.092;7.006;2023-05-15T04:49:50;13.90;99.90
14908;DHT22;7545;52.092;7.006;2023-05-15T04:52:16;14.00;99.90
14908;DHT22;7545;52.092;7.006;2023-05-15T04:54:42;14.00;99.90
14908;DHT22;7545;52.092;7.006;2023-05-15T04:57:08;14.00;99.90
14908;DHT22;7545;52.092;7.006;2023-05-15T04:59:33;14.00;99.90
14908;DHT22;7545;52.092;7.006;2023-05-15T05:02:00;14.00;99.90
14908;DHT22;7545;52.092;7.006;2023-05-15T05:04:26;14.00;99.90
14908;DHT22;7545;52.092;7.006;2023-05-15T05:06:51;14.10;99.90
14908;DHT22;7545;52.092;7.006;2023-05-15T05:09:18;14.10;99.90
14908;DHT22;7545;52.092;7.006;2023-05-15T05:11:44;14.10;99.90
14908;DHT22;7545;52.092;7.006;2023-05-15T05:14:11;14.10;99.90
14908;DHT22;7545;52.092;7.006;2023-05-15T05:16:37;14.10;99.90
14908;DHT22;7545;52.092;7.006;2023-05-15T05:19:03;14.20;99.90
14908;DHT22;7545;52.092;7.006;2023-05-15T05:21:30;14.20;99.90
14908;DHT22;7545;52.092;7.006;2023-05-15T05:23:55;14.20;99.90
14908;DHT22;7545;52.092;7.006;2023-05-15T05:26:21;14.10;99.90
14908;DHT22;7545;52.092;7.006;2023-05-15T05:28:47;14.00;99.90
14908;DHT22;7545;52.092;7.006;2023-05-15T05:31:12;13.80;99.90
14908;DHT22;7545;52.092;7.006;2023-05-15T05:33:38;13.60;99.90
14908;DHT22;7545;52.092;7.006;2023-05-15T05:36:04;13.60;99.90
14908;DHT22;7545;52.092;7.006;2023-05-15T05:38:30;13.60;99.90
14908;DHT22;7545;52.092;7.006;2023-05-15T05:40:56;13.60;99.90
14908;DHT22;7545;52.092;7.006;2023-05-15T05:43:24;13.60;99.90
14908;DHT22;7545;52.092;7.006;2023-05-15T05:45:49;13.70;99.90
14908;DHT22;7545;52.092;7.006;2023-05-15T05:48:15;13.80;99.90
14908;DHT22;7545;52.092;7.006;2023-05-15T05:50:41;13.80;99.90
14908;DHT22;7545;52.092;7.006;2023-05-15T05:53:06;13.80;99.90
14908;DHT22;7545;52.092;7.006;2023-05-15T05:55:32;13.80;99.90
14908;DHT22;7545;52.092;7.006;2023-05-15T05:57:58;13.90;99.90
14908;DHT22;7545;52.092;7.006;2023-05-15T06:00:24;14.00;99.90
14908;DHT22;7545;52.092;7.006;2023-05-15T06:02:56;13.90;99.90
14908;DHT22;7545;52.092;7.006;2023-05-15T06:05:23;13.90;99.90
14908;DHT22;7545;52.092;7.006;2023-05-15T06:07:50;13.90;99.90
14908;DHT22;7545;52.092;7.006;2023-05-15T06:10:15;13.90;99.90
14908;DHT22;7545;52.092;7.006;2023-05-15T06:12:41;13.70;99.90
14908;DHT22;7545;52.092;7.006;2023-05-15T06:15:07;13.70;99.90
14908;DHT22;7545;52.092;7.006;2023-05-15T06:17:33;13.80;99.90
14908;DHT22;7545;52.092;7.006;2023-05-15T06:19:58;13.90;99.90
14908;DHT22;7545;52.092;7.006;2023-05-15T06:22:24;14.00;99.90
14908;DHT22;7545;52.092;7.006;2023-05-15T06:24:50;14.00;99.90
14908;DHT22;7545;52.092;7.006;2023-05-15T06:27:15;14.10;99.90
14908;DHT22;7545;52.092;7.006;2023-05-15T06:29:41;14.10;99.90
14908;DHT22;7545;52.092;7.006;2023-05-15T06:32:06;14.10;99.90
14908;DHT22;7545;52.092;7.006;2023-05-15T06:34:35;14.00;99.90
14908;DHT22;7545;52.092;7.006;2023-05-15T06:37:01;14.00;99.90
14908;DHT22;7545;52.092;7.006;2023-05-15T06:39:26;14.10;99.90
14908;DHT22;7545;52.092;7.006;2023-05-15T06:41:52;14.10;99.90
14908;DHT22;7545;52.092;7.006;2023-05-15T06:44:22;14.10;99.90
14908;DHT22;7545;52.092;7.006;2023-05-15T06:46:48;14.10;99.90
14908;DHT22;7545;52.092;7.006;2023-05-15T06:49:13;14.10;99.90
14908;DHT22;7545;52.092;7.006;2023-05-15T06:51:39;14.10;99.90
14908;DHT22;7545;52.092;7.006;2023-05-15T06:54:05;14.00;99.90
14908;DHT22;7545;52.092;7.006;2023-05-15T06:56:31;14.10;99.90
14908;DHT22;7545;52.092;7.006;2023-05-15T06:58:56;14.10;99.90
14908;DHT22;7545;52.092;7.006;2023-05-15T07:01:22;14.10;99.90
14908;DHT22;7545;52.092;7.006;2023-05-15T07:03:48;14.20;99.90
14908;DHT22;7545;52.092;7.006;2023-05-15T07:06:13;14.20;99.90
14908;DHT22;7545;52.092;7.006;2023-05-15T07:08:39;14.30;99.90
14908;DHT22;7545;52.092;7.006;2023-05-15T07:11:04;14.20;99.90
14908;DHT22;7545;52.092;7.006;2023-05-15T07:13:30;14.10;99.90
14908;DHT22;7545;52.092;7.006;2023-05-15T07:15:56;14.10;99.90
14908;DHT22;7545;52.092;7.006;2023-05-15T07:18:21;14.00;99.90
14908;DHT22;7545;52.092;7.006;2023-05-15T07:20:50;13.90;99.90
14908;DHT22;7545;52.092;7.006;2023-05-15T07:23:16;13.90;99.90
14908;DHT22;7545;52.092;7.006;2023-05-15T07:25:41;13.90;99.90
14908;DHT22;7545;52.092;7.006;2023-05-15T07:28:07;14.00;99.90
14908;DHT22;7545;52.092;7.006;2023-05-15T07:30:32;13.90;99.90
14908;DHT22;7545;52.092;7.006;2023-05-15T07:32:58;14.00;99.90
14908;DHT22;7545;52.092;7.006;2023-05-15T07:35:24;13.90;99.90
14908;DHT22;7545;52.092;7.006;2023-05-15T07:37:50;13.80;99.90
14908;DHT22;7545;52.092;7.006;2023-05-15T07:40:15;13.70;99.90
14908;DHT22;7545;52.092;7.006;2023-05-15T07:42:44;13.70;99.90
14908;DHT22;7545;52.092;7.006;2023-05-15T07:45:10;13.80;99.90
14908;DHT22;7545;52.092;7.006;2023-05-15T07:47:35;13.80;99.90
14908;DHT22;7545;52.092;7.006;2023-05-15T07:50:01;13.90;99.90
14908;DHT22;7545;52.092;7.006;2023-05-15T07:52:27;13.90;99.90
14908;DHT22;7545;52.092;7.006;2023-05-15T07:54:53;13.90;99.90
14908;DHT22;7545;52.092;7.006;2023-05-15T07:57:18;14.00;99.90
14908;DHT22;7545;52.092;7.006;2023-05-15T07:59:44;14.00;99.90
14908;DHT22;7545;52.092;7.006;2023-05-15T08:02:09;14.10;99.90
14908;DHT22;7545;52.092;7.006;2023-05-15T08:04:35;14.20;99.90
14908;DHT22;7545;52.092;7.006;2023-05-15T08:07:01;14.20;99.90
14908;DHT22;7545;52.092;7.006;2023-05-15T08:09:26;14.30;99.90
14908;DHT22;7545;52.092;7.006;2023-05-15T08:11:55;14.40;99.90
14908;DHT22;7545;52.092;7.006;2023-05-15T08:14:20;14.40;99.90
14908;DHT22;7545;52.092;7.006;2023-05-15T08:16:48;14.50;99.90
14908;DHT22;7545;52.092;7.006;2023-05-15T08:19:14;14.40;99.90
14908;DHT22;7545;52.092;7.006;2023-05-15T08:21:40;14.50;99.90
14908;DHT22;7545;52.092;7.006;2023-05-15T08:24:06;14.60;99.90
14908;DHT22;7545;52.092;7.006;2023-05-15T08:26:31;14.60;99.90
14908;DHT22;7545;52.092;7.006;2023-05-15T08:28:57;14.60;99.90
14908;DHT22;7545;52.092;7.006;2023-05-15T08:31:23;14.70;99.90
14908;DHT22;7545;52.092;7.006;2023-05-15T08:33:48;14.70;99.90
14908;DHT22;7545;52.092;7.006;2023-05-15T08:36:14;14.80;99.90
14908;DHT22;7545;52.092;7.006;2023-05-15T08:38:42;14.80;99.90
14908;DHT22;7545;52.092;7.006;2023-05-15T08:41:24;14.80;99.90
14908;DHT22;7545;52.092;7.006;2023-05-15T08:44:08;14.90;99.90
14908;DHT22;7545;52.092;7.006;2023-05-15T08:46:35;15.00;99.90
14908;DHT22;7545;52.092;7.006;2023-05-15T08:49:13;15.10;99.90
14908;DHT22;7545;52.092;7.006;2023-05-15T08:51:40;15.20;99.90
14908;DHT22;7545;52.092;7.006;2023-05-15T08:54:05;15.30;99.90
14908;DHT22;7545;52.092;7.006;2023-05-15T08:56:31;15.40;99.90
14908;DHT22;7545;52.092;7.006;2023-05-15T08:58:57;15.40;99.90
14908;DHT22;7545;52.092;7.006;2023-05-15T09:01:23;15.40;99.90
14908;DHT22;7545;52.092;7.006;2023-05-15T09:03:49;15.50;99.90
14908;DHT22;7545;52.092;7.006;2023-05-15T09:06:15;15.60;99.90
14908;DHT22;7545;52.092;7.006;2023-05-15T09:08:42;15.70;99.90
14908;DHT22;7545;52.092;7.006;2023-05-15T09:11:08;15.90;99.90
14908;DHT22;7545;52.092;7.006;2023-05-15T09:13:34;16.00;99.90
14908;DHT22;7545;52.092;7.006;2023-05-15T09:15:59;16.10;99.90
14908;DHT22;7545;52.092;7.006;2023-05-15T09:18:25;16.30;99.90
14908;DHT22;7545;52.092;7.006;2023-05-15T09:20:51;16.40;99.90
14908;DHT22;7545;52.092;7.006;2023-05-15T09:23:26;16.40;99.90
14908;DHT22;7545;52.092;7.006;2023-05-15T09:25:52;16.60;99.90
14908;DHT22;7545;52.092;7.006;2023-05-15T09:28:28;16.60;99.90
14908;DHT22;7545;52.092;7.006;2023-05-15T09:31:01;16.80;99.90
14908;DHT22;7545;52.092;7.006;2023-05-15T09:33:34;16.80;99.90
14908;DHT22;7545;52.092;7.006;2023-05-15T09:36:01;16.90;99.90
14908;DHT22;7545;52.092;7.006;2023-05-15T09:38:27;17.00;99.90
14908;DHT22;7545;52.092;7.006;2023-05-15T09:41:03;17.10;99.90
14908;DHT22;7545;52.092;7.006;2023-05-15T09:43:36;17.20;99.90
14908;DHT22;7545;52.092;7.006;2023-05-15T09:46:02;17.20;99.90
14908;DHT22;7545;52.092;7.006;2023-05-15T09:48:29;17.30;99.90
14908;DHT22;7545;52.092;7.006;2023-05-15T09:50:55;17.40;99.90
14908;DHT22;7545;52.092;7.006;2023-05-15T09:53:22;17.50;99.90
14908;DHT22;7545;52.092;7.006;2023-05-15T09:55:48;17.70;99.90
14908;DHT22;7545;52.092;7.006;2023-05-15T09:58:17;17.80;99.90
14908;DHT22;7545;52.092;7.006;2023-05-15T10:00:44;17.90;99.90
14908;DHT22;7545;52.092;7.006;2023-05-15T10:03:11;18.00;99.90
14908;DHT22;7545;52.092;7.006;2023-05-15T10:05:38;18.10;99.90
14908;DHT22;7545;52.092;7.006;2023-05-15T10:08:04;18.20;99.90
14908;DHT22;7545;52.092;7.006;2023-05-15T10:10:30;18.20;99.90
14908;DHT22;7545;52.092;7.006;2023-05-15T10:12:58;18.20;99.90
14908;DHT22;7545;52.092;7.006;2023-05-15T10:15:26;18.30;99.90
14908;DHT22;7545;52.092;7.006;2023-05-15T10:17:53;18.30;99.90
14908;DHT22;7545;52.092;7.006;2023-05-15T10:20:20;18.40;99.90
14908;DHT22;7545;52.092;7.006;2023-05-15T10:22:48;18.40;99.90
14908;DHT22;7545;52.092;7.006;2023-05-15T10:25:32;18.50;99.90
14908;DHT22;7545;52.092;7.006;2023-05-15T10:28:01;18.60;99.90
14908;DHT22;7545;52.092;7.006;2023-05-15T10:30:28;18.80;99.90
14908;DHT22;7545;52.092;7.006;2023-05-15T10:32:55;18.90;99.90
14908;DHT22;7545;52.092;7.006;2023-05-15T10:35:22;18.90;99.90
14908;DHT22;7545;52.092;7.006;2023-05-15T10:37:48;19.00;99.90
14908;DHT22;7545;52.092;7.006;2023-05-15T10:40:15;19.00;99.90
14908;DHT22;7545;52.092;7.006;2023-05-15T10:42:43;19.10;99.90
14908;DHT22;7545;52.092;7.006;2023-05-15T10:45:09;19.10;99.90
14908;DHT22;7545;52.092;7.006;2023-05-15T10:47:36;19.20;99.90
14908;DHT22;7545;52.092;7.006;2023-05-15T10:50:04;19.30;99.90
14908;DHT22;7545;52.092;7.006;2023-05-15T10:52:33;19.30;99.90
14908;DHT22;7545;52.092;7.006;2023-05-15T10:55:00;19.40;99.90
14908;DHT22;7545;52.092;7.006;2023-05-15T10:57:28;19.50;99.90
14908;DHT22;7545;52.092;7.006;2023-05-15T10:59:54;19.60;99.90
14908;DHT22;7545;52.092;7.006;2023-05-15T11:02:25;19.70;99.90
14908;DHT22;7545;52.092;7.006;2023-05-15T11:04:59;19.80;99.90
14908;DHT22;7545;52.092;7.006;2023-05-15T11:07:25;19.90;99.90
14908;DHT22;7545;52.092;7.006;2023-05-15T11:13:01;19.90;99.90
14908;DHT22;7545;52.092;7.006;2023-05-15T11:15:43;20.00;99.90
14908;DHT22;7545;52.092;7.006;2023-05-15T11:18:10;20.10;99.90
14908;DHT22;7545;52.092;7.006;2023-05-15T11:20:40;20.20;99.90
14908;DHT22;7545;52.092;7.006;2023-05-15T11:23:06;20.20;99.90
14908;DHT22;7545;52.092;7.006;2023-05-15T11:25:33;20.20;99.90
14908;DHT22;7545;52.092;7.006;2023-05-15T11:28:02;20.30;99.90
14908;DHT22;7545;52.092;7.006;2023-05-15T11:33:06;20.20;99.90
14908;DHT22;7545;52.092;7.006;2023-05-15T11:35:43;20.30;99.90
14908;DHT22;7545;52.092;7.006;2023-05-15T11:38:23;20.40;99.90
14908;DHT22;7545;52.092;7.006;2023-05-15T11:40:53;20.40;99.90
14908;DHT22;7545;52.092;7.006;2023-05-15T11:43:27;20.40;99.90
14908;DHT22;7545;52.092;7.006;2023-05-15T11:45:55;20.50;99.90
14908;DHT22;7545;52.092;7.006;2023-05-15T11:50:57;20.50;99.90
14908;DHT22;7545;52.092;7.006;2023-05-15T11:53:23;20.60;99.90
14908;DHT22;7545;52.092;7.006;2023-05-15T11:55:51;20.50;99.90
14908;DHT22;7545;52.092;7.006;2023-05-15T11:58:20;20.40;99.90
14908;DHT22;7545;52.092;7.006;2023-05-15T12:00:48;20.40;99.90
14908;DHT22;7545;52.092;7.006;2023-05-15T12:03:25;20.40;99.90
14908;DHT22;7545;52.092;7.006;2023-05-15T12:05:52;20.40;99.90
14908;DHT22;7545;52.092;7.006;2023-05-15T12:08:19;20.40;99.90
14908;DHT22;7545;52.092;7.006;2023-05-15T12:10:49;20.40;99.90
14908;DHT22;7545;52.092;7.006;2023-05-15T12:13:16;20.30;99.90
14908;DHT22;7545;52.092;7.006;2023-05-15T12:15:44;20.30;99.90
14908;DHT22;7545;52.092;7.006;2023-05-15T12:18:10;20.50;99.90
14908;DHT22;7545;52.092;7.006;2023-05-15T12:20:38;20.60;99.90
14908;DHT22;7545;52.092;7.006;2023-05-15T12:23:06;20.80;99.90
14908;DHT22;7545;52.092;7.006;2023-05-15T12:25:33;20.80;99.90
14908;DHT22;7545;52.092;7.006;2023-05-15T12:28:01;20.70;99.90
14908;DHT22;7545;52.092;7.006;2023-05-15T12:30:29;20.80;99.90
14908;DHT22;7545;52.092;7.006;2023-05-15T12:33:02;20.90;99.90
14908;DHT22;7545;52.092;7.006;2023-05-15T12:35:28;21.00;99.90
14908;DHT22;7545;52.092;7.006;2023-05-15T12:37:54;21.10;99.90
14908;DHT22;7545;52.092;7.006;2023-05-15T12:40:21;21.20;99.90
14908;DHT22;7545;52.092;7.006;2023-05-15T12:42:51;21.20;99.90
14908;DHT22;7545;52.092;7.006;2023-05-15T12:45:21;21.10;99.90
14908;DHT22;7545;52.092;7.006;2023-05-15T12:47:48;21.20;99.90
14908;DHT22;7545;52.092;7.006;2023-05-15T12:50:15;21.10;99.90
14908;DHT22;7545;52.092;7.006;2023-05-15T12:52:55;21.10;99.90
14908;DHT22;7545;52.092;7.006;2023-05-15T12:55:24;21.10;99.90
14908;DHT22;7545;52.092;7.006;2023-05-15T12:57:55;21.00;99.90
14908;DHT22;7545;52.092;7.006;2023-05-15T13:00:22;21.00;99.90
14908;DHT22;7545;52.092;7.006;2023-05-15T13:02:57;21.00;99.90
14908;DHT22;7545;52.092;7.006;2023-05-15T13:05:24;21.20;99.90
14908;DHT22;7545;52.092;7.006;2023-05-15T13:07:50;21.30;99.90
14908;DHT22;7545;52.092;7.006;2023-05-15T13:10:23;21.30;99.90
14908;DHT22;7545;52.092;7.006;2023-05-15T13:12:51;21.20;99.90
14908;DHT22;7545;52.092;7.006;2023-05-15T13:15:29;21.10;99.90
14908;DHT22;7545;52.092;7.006;2023-05-15T13:18:14;21.20;99.90
14908;DHT22;7545;52.092;7.006;2023-05-15T13:23:08;21.60;99.90
14908;DHT22;7545;52.092;7.006;2023-05-15T13:25:34;21.50;99.90
14908;DHT22;7545;52.092;7.006;2023-05-15T13:28:01;21.60;99.90
14908;DHT22;7545;52.092;7.006;2023-05-15T13:30:28;21.60;99.90
14908;DHT22;7545;52.092;7.006;2023-05-15T13:32:54;21.50;99.90
14908;DHT22;7545;52.092;7.006;2023-05-15T13:35:23;21.50;99.90
14908;DHT22;7545;52.092;7.006;2023-05-15T13:37:49;21.50;99.90
14908;DHT22;7545;52.092;7.006;2023-05-15T13:40:14;21.60;99.90
14908;DHT22;7545;52.092;7.006;2023-05-15T13:42:41;21.60;99.90
14908;DHT22;7545;52.092;7.006;2023-05-15T13:45:08;21.50;99.90
14908;DHT22;7545;52.092;7.006;2023-05-15T13:47:34;21.50;99.90
14908;DHT22;7545;52.092;7.006;2023-05-15T13:50:00;21.50;99.90
14908;DHT22;7545;52.092;7.006;2023-05-15T13:52:26;21.40;99.90
14908;DHT22;7545;52.092;7.006;2023-05-15T13:54:53;21.30;99.90
14908;DHT22;7545;52.092;7.006;2023-05-15T13:57:19;21.30;99.90
14908;DHT22;7545;52.092;7.006;2023-05-15T13:59:44;21.20;99.90
14908;DHT22;7545;52.092;7.006;2023-05-15T14:02:10;21.30;99.90
14908;DHT22;7545;52.092;7.006;2023-05-15T14:04:36;21.30;99.90
14908;DHT22;7545;52.092;7.006;2023-05-15T14:07:01;21.40;99.90
14908;DHT22;7545;52.092;7.006;2023-05-15T14:09:27;21.40;99.90
14908;DHT22;7545;52.092;7.006;2023-05-15T14:11:53;21.40;99.90
14908;DHT22;7545;52.092;7.006;2023-05-15T14:14:18;21.20;99.90
14908;DHT22;7545;52.092;7.006;2023-05-15T14:16:44;21.20;99.90
14908;DHT22;7545;52.092;7.006;2023-05-15T14:19:09;21.30;99.90
14908;DHT22;7545;52.092;7.006;2023-05-15T14:21:35;21.30;99.90
14908;DHT22;7545;52.092;7.006;2023-05-15T14:24:01;21.20;99.90
14908;DHT22;7545;52.092;7.006;2023-05-15T14:26:32;21.20;99.90
14908;DHT22;7545;52.092;7.006;2023-05-15T14:28:58;21.20;99.90
14908;DHT22;7545;52.092;7.006;2023-05-15T14:31:23;21.30;99.90
14908;DHT22;7545;52.092;7.006;2023-05-15T14:33:50;21.30;99.90
14908;DHT22;7545;52.092;7.006;2023-05-15T14:36:16;21.30;99.90
14908;DHT22;7545;52.092;7.006;2023-05-15T14:38:42;21.40;99.90
14908;DHT22;7545;52.092;7.006;2023-05-15T14:41:12;21.40;99.90
14908;DHT22;7545;52.092;7.006;2023-05-15T14:43:38;21.50;99.90
14908;DHT22;7545;52.092;7.006;2023-05-15T14:46:04;21.50;99.90
14908;DHT22;7545;52.092;7.006;2023-05-15T14:48:29;21.40;99.90
14908;DHT22;7545;52.092;7.006;2023-05-15T14:50:56;21.40;99.90
14908;DHT22;7545;52.092;7.006;2023-05-15T14:53:22;21.40;99.90
14908;DHT22;7545;52.092;7.006;2023-05-15T14:55:49;21.40;99.90
14908;DHT22;7545;52.092;7.006;2023-05-15T14:58:14;21.50;99.90
14908;DHT22;7545;52.092;7.006;2023-05-15T15:00:40;21.50;99.90
14908;DHT22;7545;52.092;7.006;2023-05-15T15:03:06;21.50;99.90
14908;DHT22;7545;52.092;7.006;2023-05-15T15:05:32;21.60;99.90
14908;DHT22;7545;52.092;7.006;2023-05-15T15:08:02;21.50;99.90
14908;DHT22;7545;52.092;7.006;2023-05-15T15:10:28;21.40;99.90
14908;DHT22;7545;52.092;7.006;2023-05-15T15:12:54;21.30;99.90
14908;DHT22;7545;52.092;7.006;2023-05-15T15:15:20;21.20;99.90
14908;DHT22;7545;52.092;7.006;2023-05-15T15:17:47;21.20;99.90
14908;DHT22;7545;52.092;7.006;2023-05-15T15:20:15;21.20;99.90
14908;DHT22;7545;52.092;7.006;2023-05-15T15:22:41;21.20;99.90
14908;DHT22;7545;52.092;7.006;2023-05-15T15:25:07;21.20;99.90
14908;DHT22;7545;52.092;7.006;2023-05-15T15:27:33;21.20;99.90
14908;DHT22;7545;52.092;7.006;2023-05-15T15:30:02;21.20;99.90
14908;DHT22;7545;52.092;7.006;2023-05-15T15:32:29;21.10;99.90
14908;DHT22;7545;52.092;7.006;2023-05-15T15:34:57;21.10;99.90
14908;DHT22;7545;52.092;7.006;2023-05-15T15:37:23;21.00;99.90
14908;DHT22;7545;52.092;7.006;2023-05-15T15:39:49;20.90;99.90
14908;DHT22;7545;52.092;7.006;2023-05-15T15:42:15;20.90;99.90
14908;DHT22;7545;52.092;7.006;2023-05-15T15:44:41;20.90;99.90
14908;DHT22;7545;52.092;7.006;2023-05-15T15:47:07;20.90;99.90
14908;DHT22;7545;52.092;7.006;2023-05-15T15:49:33;20.80;99.90
14908;DHT22;7545;52.092;7.006;2023-05-15T15:51:58;20.90;99.90
14908;DHT22;7545;52.092;7.006;2023-05-15T15:54:24;20.80;99.90
14908;DHT22;7545;52.092;7.006;2023-05-15T15:56:50;20.90;99.90
14908;DHT22;7545;52.092;7.006;2023-05-15T15:59:16;20.80;99.90
14908;DHT22;7545;52.092;7.006;2023-05-15T16:01:42;20.70;99.90
14908;DHT22;7545;52.092;7.006;2023-05-15T16:04:08;20.70;99.90